Time;durP1;ratioP1;P1;durP2;ratioP2;P2;SDS_P1;SDS_P2;PMS_P1;PMS_P2;Temp;Humidity;BMP_temperature;BMP_pressure;BME280_temperature;BME280_humidity;BME280_pressure;Samples;Min_cycle;Max_cycle;Signal;HPM_P1;HPM_P2
2023/03/09 00:01:33;;;;;;;13.30;6.40;;;;;;;10.11;68.08;99655.81;4995379;28;20130;-73
2023/03/09 00:04:00;;;;;;;11.00;6.72;;;;;;;10.64;67.88;99737.47;5016060;28;20080;-70
2023/03/09 00:06:26;;;;;;;9.50;5.93;;;;;;;10.76;67.69;99751.28;5006052;28;20032;-71
2023/03/09 00:08:53;;;;;;;9.93;6.68;;;;;;;10.56;68.45;99721.81;5006553;28;20049;-72
2023/03/09 00:11:18;;;;;;;9.73;6.53;;;;;;;10.24;67.69;99667.06;5001228;28;20109;-73
2023/03/09 00:13:46;;;;;;;15.88;6.18;;;;;;;10.14;67.13;99646.16;4997582;28;20046;-71
2023/03/09 00:16:21;;;;;;;15.30;7.18;;;;;;;10.72;67.58;99738.22;5003254;28;20081;-72
2023/03/09 00:18:46;;;;;;;10.27;4.85;;;;;;;10.27;67.20;99654.75;5006127;28;20109;-72
2023/03/09 00:21:14;;;;;;;12.70;6.80;;;;;;;10.49;68.87;99707.03;5001608;28;20133;-72
2023/03/09 00:23:45;;;;;;;11.60;6.45;;;;;;;10.52;68.41;99713.09;5005309;28;20103;-72
2023/03/09 00:26:11;;;;;;;11.88;6.88;;;;;;;10.48;68.60;99686.91;4998486;28;20046;-72
2023/03/09 00:28:37;;;;;;;8.70;6.28;;;;;;;9.83;69.28;99579.22;5001424;28;20042;-70
2023/03/09 00:31:04;;;;;;;11.05;5.88;;;;;;;9.88;69.36;99601.91;4998810;28;20054;-72
2023/03/09 00:33:30;;;;;;;12.43;6.53;;;;;;;9.76;69.84;99575.78;4999397;28;20038;-70
2023/03/09 00:35:55;;;;;;;15.90;7.35;;;;;;;9.93;69.05;99613.19;4995695;28;20053;-70
2023/03/09 00:38:21;;;;;;;10.27;7.00;;;;;;;9.85;69.70;99595.81;4997362;28;20041;-70
2023/03/09 00:40:46;;;;;;;10.93;6.20;;;;;;;10.54;69.50;99719.19;4996834;28;20366;-70
2023/03/09 00:43:12;;;;;;;12.82;6.15;;;;;;;10.22;70.80;99687.16;5002187;28;20042;-70
2023/03/09 00:45:37;;;;;;;18.30;7.88;;;;;;;9.71;70.61;99588.06;5004646;28;20033;-71
2023/03/09 00:48:03;;;;;;;11.38;7.70;;;;;;;10.31;69.38;99685.34;5002397;28;20046;-71
2023/03/09 00:50:28;;;;;;;16.20;9.25;;;;;;;9.64;69.23;99582.03;5000951;28;20425;-71
2023/03/09 00:52:54;;;;;;;11.68;6.72;;;;;;;9.62;69.91;99585.53;5004664;28;20038;-72
2023/03/09 00:55:19;;;;;;;11.40;6.93;;;;;;;10.37;71.58;99721.13;4996999;28;20055;-71
2023/03/09 00:57:45;;;;;;;12.77;7.20;;;;;;;10.17;72.25;99696.84;5005526;28;20124;-72
2023/03/09 01:00:11;;;;;;;12.93;7.95;;;;;;;10.23;72.58;99715.09;5003270;28;20073;-71
2023/03/09 01:02:36;;;;;;;14.25;7.75;;;;;;;9.87;73.19;99662.16;5001791;28;20073;-71
2023/03/09 01:05:03;;;;;;;14.80;7.43;;;;;;;9.64;73.82;99604.75;4998664;28;20069;-71
2023/03/09 01:07:30;;;;;;;10.63;6.68;;;;;;;10.11;74.81;99689.88;5000381;28;20054;-70
2023/03/09 01:09:55;;;;;;;13.20;7.35;;;;;;;9.73;73.44;99623.00;5001012;28;20034;-70
2023/03/09 01:12:21;;;;;;;12.05;7.18;;;;;;;9.59;73.29;99596.94;5002916;28;20379;-71
2023/03/09 01:14:48;;;;;;;16.55;7.68;;;;;;;9.55;72.39;99574.25;5000036;28;20523;-72
2023/03/09 01:17:14;;;;;;;11.38;6.03;;;;;;;10.16;73.51;99672.38;5005054;28;20053;-70
2023/03/09 01:19:39;;;;;;;11.30;5.93;;;;;;;9.57;72.24;99555.91;5002673;28;20042;-72
2023/03/09 01:22:05;;;;;;;8.00;5.32;;;;;;;9.73;71.83;99589.78;5004795;28;20779;-72
2023/03/09 01:24:30;;;;;;;10.48;6.03;;;;;;;9.98;72.18;99635.88;5004453;28;20034;-71
2023/03/09 01:26:56;;;;;;;10.85;6.75;;;;;;;10.39;71.92;99690.50;5005362;28;20104;-72
2023/03/09 01:29:21;;;;;;;13.77;6.97;;;;;;;9.31;73.09;99512.53;4993947;28;20092;-70
2023/03/09 01:31:47;;;;;;;9.98;6.70;;;;;;;9.84;74.67;99617.66;5003396;28;20042;-70
2023/03/09 01:34:12;;;;;;;14.40;5.50;;;;;;;10.41;73.38;99696.59;5002111;28;20132;-72
2023/03/09 01:36:39;;;;;;;10.07;4.97;;;;;;;10.38;72.82;99682.66;4998106;28;20029;-71
2023/03/09 01:39:05;;;;;;;10.88;5.82;;;;;;;10.24;76.24;99683.66;5004930;28;20045;-73
2023/03/09 01:41:30;;;;;;;11.15;5.82;;;;;;;10.12;77.43;99670.66;5002041;28;20116;-70
2023/03/09 01:43:56;;;;;;;14.05;6.30;;;;;;;9.38;78.10;99548.22;4999028;28;20050;-70
2023/03/09 01:46:25;;;;;;;13.18;6.15;;;;;;;10.25;77.76;99705.47;4998942;28;20490;-72
2023/03/09 01:49:16;;;;;;;13.35;5.68;;;;;;;10.33;77.00;99704.56;4997350;28;20049;-72
2023/03/09 01:51:54;;;;;;;10.20;6.00;;;;;;;10.23;77.35;99702.91;4986931;28;20053;-73
2023/03/09 01:54:28;;;;;;;13.20;5.90;;;;;;;9.69;80.67;99627.41;4998067;28;20733;-70
2023/03/09 01:56:58;;;;;;;8.48;5.30;;;;;;;9.85;81.15;99674.41;5002365;28;20053;-72
2023/03/09 01:59:27;;;;;;;11.27;5.38;;;;;;;9.47;80.01;99592.66;5004175;28;20056;-71
2023/03/09 02:01:52;;;;;;;12.02;5.75;;;;;;;9.22;84.63;99562.34;5005126;28;20779;-71
2023/03/09 02:04:30;;;;;;;10.18;5.75;;;;;;;9.91;83.71;99675.22;5004633;28;20095;-70
2023/03/09 02:06:55;;;;;;;14.27;5.43;;;;;;;9.91;83.88;99683.09;5006065;28;20034;-71
2023/03/09 02:09:42;;;;;;;9.50;5.57;;;;;;;9.87;82.81;99681.38;5006512;28;20045;-70
2023/03/09 02:12:13;;;;;;;12.18;5.90;;;;;;;9.20;83.11;99569.31;5006016;28;20506;-72
2023/03/09 02:14:38;;;;;;;10.85;5.65;;;;;;;9.73;80.07;99642.19;5008506;28;20054;-72
2023/03/09 02:17:03;;;;;;;11.13;5.55;;;;;;;9.85;81.45;99680.50;5008327;28;20060;-71
2023/03/09 02:19:57;;;;;;;8.27;5.22;;;;;;;9.07;82.67;99547.63;4999986;28;20128;-71
2023/03/09 02:22:22;;;;;;;8.82;6.10;;;;;;;9.75;79.99;99670.16;5004924;28;20077;-72
2023/03/09 02:24:50;;;;;;;10.27;6.72;;;;;;;9.74;80.35;99677.16;5005859;28;20030;-72
2023/03/09 02:27:19;;;;;;;10.60;5.57;;;;;;;9.09;78.92;99561.59;5003312;28;20065;-70
2023/03/09 02:29:45;;;;;;;7.90;6.35;;;;;;;9.09;78.76;99553.72;4992802;28;20508;-70
2023/03/09 02:32:11;;;;;;;15.38;5.70;;;;;;;8.85;81.23;99557.41;5006891;28;20096;-71
2023/03/09 02:34:37;;;;;;;15.05;6.65;;;;;;;9.06;81.91;99582.53;5006229;28;20049;-72
2023/03/09 02:37:03;;;;;;;10.48;6.28;;;;;;;9.46;83.46;99648.56;5004338;28;20096;-70
2023/03/09 02:39:43;;;;;;;13.38;6.68;;;;;;;9.46;85.59;99666.88;5013203;28;20034;-71
2023/03/09 02:42:09;;;;;;;15.82;6.57;;;;;;;9.39;86.73;99657.34;5004108;28;20524;-70
2023/03/09 02:44:35;;;;;;;12.02;6.00;;;;;;;9.16;88.01;99643.53;5006623;28;20046;-69
2023/03/09 02:47:01;;;;;;;15.85;6.40;;;;;;;9.39;88.13;99664.28;5004798;28;20495;-70
2023/03/09 02:49:27;;;;;;;12.65;6.45;;;;;;;8.77;85.48;99560.03;5006667;28;20053;-70
2023/03/09 02:51:53;;;;;;;9.90;6.03;;;;;;;9.19;87.45;99657.47;5007373;28;20058;-71
2023/03/09 02:54:18;;;;;;;11.98;7.25;;;;;;;8.56;89.95;99547.97;5006928;28;20083;-70
2023/03/09 02:56:44;;;;;;;10.30;6.88;;;;;;;8.51;89.29;99543.66;5007757;28;20506;-74
2023/03/09 02:59:09;;;;;;;15.00;8.52;;;;;;;8.49;90.35;99541.03;5005862;28;20270;-70
2023/03/09 03:01:35;;;;;;;10.52;6.20;;;;;;;9.09;92.88;99658.41;4998593;28;20049;-69
2023/03/09 03:04:01;;;;;;;17.70;8.70;;;;;;;8.40;91.27;99547.19;5005598;28;20470;-70
2023/03/09 03:06:26;;;;;;;31.42;8.45;;;;;;;8.71;91.70;99604.56;5004721;28;20136;-70
2023/03/09 03:08:52;;;;;;;15.45;8.20;;;;;;;9.06;90.70;99666.25;5004183;28;20041;-71
2023/03/09 03:11:17;;;;;;;18.75;8.05;;;;;;;7.91;90.30;99447.25;5003311;28;20046;-73
2023/03/09 03:13:42;;;;;;;19.52;9.27;;;;;;;9.08;91.32;99657.56;5006224;28;20084;-71
2023/03/09 03:16:08;;;;;;;14.15;7.78;;;;;;;8.99;91.17;99625.31;5006343;28;20398;-72
2023/03/09 03:18:33;;;;;;;12.75;7.25;;;;;;;9.10;91.52;99660.13;5001396;28;20039;-72
2023/03/09 03:20:59;;;;;;;13.05;7.75;;;;;;;8.97;93.07;99641.03;5004957;28;20058;-71
2023/03/09 03:23:25;;;;;;;12.55;7.60;;;;;;;8.29;94.44;99535.00;5007910;28;20546;-73
2023/03/09 03:25:50;;;;;;;14.88;7.38;;;;;;;9.00;93.91;99651.47;5006610;28;20045;-70
2023/03/09 03:28:16;;;;;;;9.98;7.18;;;;;;;8.98;95.64;99657.59;5004992;28;20126;-70
2023/03/09 03:30:41;;;;;;;15.68;7.40;;;;;;;8.23;95.38;99513.25;5004426;28;20577;-72
2023/03/09 03:33:07;;;;;;;16.92;8.68;;;;;;;9.10;93.88;99649.66;5002418;28;20100;-72
2023/03/09 03:35:32;;;;;;;12.77;6.97;;;;;;;8.53;94.65;99574.16;4998263;28;20176;-72
2023/03/09 03:37:58;;;;;;;18.33;7.97;;;;;;;9.13;94.61;99674.94;4998650;28;20479;-73
2023/03/09 03:40:23;;;;;;;16.90;8.57;;;;;;;8.99;95.64;99648.84;4999307;28;20049;-71
2023/03/09 03:42:49;;;;;;;13.57;7.70;;;;;;;9.01;96.61;99650.63;5003811;28;20458;-72
2023/03/09 03:45:14;;;;;;;11.32;7.20;;;;;;;8.84;97.64;99631.50;5004484;28;20044;-72
2023/03/09 03:47:40;;;;;;;10.55;7.38;;;;;;;8.31;96.77;99544.63;5005919;28;20034;-71
2023/03/09 03:50:06;;;;;;;16.13;8.77;;;;;;;9.12;99.20;99683.69;5003100;28;20045;-73
2023/03/09 03:52:31;;;;;;;15.25;7.72;;;;;;;8.55;99.66;99595.06;4998348;28;20039;-73
2023/03/09 03:54:57;;;;;;;13.77;8.57;;;;;;;8.24;100.00;99549.00;4998151;28;20050;-72
2023/03/09 03:57:22;;;;;;;17.48;9.15;;;;;;;8.83;100.00;99648.97;5000081;28;20033;-74
2023/03/09 03:59:49;;;;;;;24.25;7.75;;;;;;;9.02;100.00;99682.88;5002841;28;20045;-72
2023/03/09 04:02:14;;;;;;;15.73;8.55;;;;;;;8.97;100.00;99672.44;4998526;28;20133;-73
2023/03/09 04:04:39;;;;;;;15.45;8.65;;;;;;;8.27;100.00;99544.63;4998787;28;20471;-72
2023/03/09 04:07:05;;;;;;;13.07;7.60;;;;;;;8.97;100.00;99654.13;4997152;28;20140;-72
2023/03/09 04:09:31;;;;;;;18.52;7.95;;;;;;;8.38;100.00;99554.16;5004827;28;20028;-72
2023/03/09 04:11:56;;;;;;;12.27;7.45;;;;;;;9.17;100.00;99664.44;5005324;28;20444;-71
2023/03/09 04:14:22;;;;;;;19.00;8.85;;;;;;;8.36;100.00;99535.00;5003393;28;20060;-72
2023/03/09 04:16:47;;;;;;;12.30;7.90;;;;;;;8.53;100.00;99566.31;5000366;28;20530;-70
2023/03/09 04:19:13;;;;;;;18.25;8.23;;;;;;;8.61;100.00;99574.97;4999215;28;20053;-70
2023/03/09 04:21:38;;;;;;;11.80;8.13;;;;;;;9.12;100.00;99660.13;5003429;28;20684;-71
2023/03/09 04:24:04;;;;;;;11.20;6.97;;;;;;;9.22;100.00;99680.13;5003040;28;20452;-75
2023/03/09 04:26:30;;;;;;;13.15;7.40;;;;;;;8.38;100.00;99532.34;5016180;28;20375;-72
2023/03/09 04:28:55;;;;;;;18.42;7.80;;;;;;;8.57;100.00;99565.41;5005965;28;20609;-72
2023/03/09 04:31:21;;;;;;;13.05;7.78;;;;;;;8.80;100.00;99599.28;4999178;28;20041;-72
2023/03/09 04:33:46;;;;;;;12.50;6.43;;;;;;;9.16;100.00;99625.22;5000660;28;20049;-72
2023/03/09 04:36:12;;;;;;;14.73;7.93;;;;;;;9.21;100.00;99640.00;5000462;28;20111;-72
2023/03/09 04:38:37;;;;;;;14.68;8.02;;;;;;;9.15;100.00;99642.66;4998470;28;20038;-72
2023/03/09 04:41:03;;;;;;;18.40;8.75;;;;;;;7.90;100.00;99422.00;4995125;28;20105;-72
2023/03/09 04:43:29;;;;;;;18.23;8.30;;;;;;;8.92;100.00;99616.66;5004972;28;20060;-72
2023/03/09 04:45:54;;;;;;;15.15;9.25;;;;;;;9.05;100.00;99665.41;5002910;28;20474;-73
2023/03/09 04:48:20;;;;;;;14.25;7.40;;;;;;;8.59;100.00;99599.38;5004719;28;20030;-71
2023/03/09 04:50:46;;;;;;;15.18;8.55;;;;;;;8.94;100.00;99664.59;5001574;28;20137;-70
2023/03/09 04:53:11;;;;;;;16.65;8.38;;;;;;;8.24;100.00;99524.56;4994005;28;20081;-71
2023/03/09 04:55:37;;;;;;;19.15;8.93;;;;;;;9.04;100.00;99657.56;4999807;28;20057;-71
2023/03/09 04:58:03;;;;;;;13.27;9.25;;;;;;;8.50;100.00;99563.72;5004494;28;20034;-72
2023/03/09 05:00:30;;;;;;;18.13;8.10;;;;;;;8.19;100.00;99506.34;5004460;28;20069;-72
2023/03/09 05:02:56;;;;;;;18.58;9.25;;;;;;;9.01;100.00;99658.47;5005400;28;20080;-71
2023/03/09 05:05:21;;;;;;;15.80;9.40;;;;;;;8.45;100.00;99555.00;5001787;28;20073;-72
2023/03/09 05:07:47;;;;;;;20.02;10.35;;;;;;;9.03;100.00;99653.19;5000938;28;20050;-71
2023/03/09 05:10:12;;;;;;;16.35;9.93;;;;;;;9.06;100.00;99646.22;5002700;28;20069;-70
2023/03/09 05:12:38;;;;;;;15.35;8.98;;;;;;;8.39;100.00;99534.97;5005312;28;20383;-71
2023/03/09 05:15:03;;;;;;;16.27;8.68;;;;;;;8.29;100.00;99527.16;5000930;28;20506;-71
2023/03/09 05:17:30;;;;;;;15.48;9.07;;;;;;;9.04;100.00;99637.50;5003205;28;20132;-71
2023/03/09 05:19:55;;;;;;;14.95;8.18;;;;;;;8.78;100.00;99577.50;5005236;28;20168;-71
2023/03/09 05:22:21;;;;;;;11.05;8.07;;;;;;;8.61;100.00;99525.28;5002827;28;20045;-73
2023/03/09 05:24:47;;;;;;;14.57;8.63;;;;;;;9.19;100.00;99649.59;5000167;28;20041;-73
2023/03/09 05:27:12;;;;;;;13.95;7.65;;;;;;;8.62;100.00;99524.41;5003700;28;20037;-72
2023/03/09 05:29:39;;;;;;;13.27;9.13;;;;;;;9.38;100.00;99639.88;4998528;28;20046;-74
2023/03/09 05:32:05;;;;;;;24.40;11.02;;;;;;;9.26;100.00;99612.03;5003250;28;20180;-71
2023/03/09 05:34:30;;;;;;;21.75;7.90;;;;;;;8.62;100.00;99508.72;4999540;28;20057;-71
2023/03/09 05:36:55;;;;;;;19.58;7.97;;;;;;;9.37;100.00;99624.19;4998564;28;20125;-72
2023/03/09 05:39:21;;;;;;;11.07;7.90;;;;;;;9.01;100.00;99547.66;5005519;28;20033;-72
2023/03/09 05:41:47;;;;;;;17.27;8.95;;;;;;;9.61;100.00;99644.06;5007071;28;20580;-71
2023/03/09 05:44:12;;;;;;;15.77;9.27;;;;;;;8.94;100.00;99517.19;5002577;28;20069;-72
2023/03/09 05:46:39;;;;;;;10.65;7.53;;;;;;;9.78;100.00;99652.63;4997532;28;20050;-70
2023/03/09 05:49:04;;;;;;;16.42;8.35;;;;;;;8.94;100.00;99532.91;5000762;28;21748;-71
2023/03/09 05:51:29;;;;;;;14.23;7.93;;;;;;;9.87;100.00;99660.41;5005968;28;20069;-70
2023/03/09 05:53:55;;;;;;;22.65;10.25;;;;;;;9.94;100.00;99655.97;5002508;28;20796;-72
2023/03/09 05:56:21;;;;;;;27.75;10.52;;;;;;;9.14;100.00;99517.91;5002543;28;20049;-72
2023/03/09 05:58:50;;;;;;;20.90;10.55;;;;;;;9.92;100.00;99666.47;5003484;28;20045;-71
2023/03/09 06:01:22;;;;;;;11.32;8.30;;;;;;;10.06;100.00;99660.22;5005309;28;20041;-71
2023/03/09 06:03:48;;;;;;;14.20;8.23;;;;;;;10.11;100.00;99661.06;4994181;28;20038;-72
2023/03/09 06:06:15;;;;;;;19.60;9.85;;;;;;;9.65;100.00;99568.06;5002661;28;20033;-73
2023/03/09 06:08:41;;;;;;;13.68;8.35;;;;;;;10.21;100.00;99656.56;5010657;28;20546;-71
2023/03/09 06:11:06;;;;;;;26.63;9.75;;;;;;;9.70;100.00;99563.66;5003130;28;20069;-71
2023/03/09 06:13:32;;;;;;;19.30;9.07;;;;;;;9.77;100.00;99561.84;5002772;28;20050;-74
2023/03/09 06:15:57;;;;;;;16.02;8.77;;;;;;;9.70;100.00;99537.44;5002268;28;20089;-71
2023/03/09 06:18:23;;;;;;;19.10;6.72;;;;;;;10.64;100.00;99677.13;5005532;28;20060;-72
2023/03/09 06:20:49;;;;;;;9.48;7.70;;;;;;;10.75;100.00;99678.72;5005387;28;20073;-73
2023/03/09 06:23:14;;;;;;;11.43;7.80;;;;;;;10.06;100.00;99551.00;5003980;28;20054;-70
2023/03/09 06:25:40;;;;;;;11.77;7.45;;;;;;;10.86;100.00;99689.06;5005474;28;20089;-70
2023/03/09 06:28:06;;;;;;;18.27;8.30;;;;;;;10.92;100.00;99696.00;5005415;28;20046;-70
2023/03/09 06:30:32;;;;;;;9.73;5.43;;;;;;;10.90;98.06;99684.66;4997306;28;20042;-71
2023/03/09 06:32:57;;;;;;;11.48;6.50;;;;;;;10.21;97.95;99564.81;5001410;28;20056;-72
2023/03/09 06:35:24;;;;;;;13.38;7.13;;;;;;;10.91;96.98;99679.41;5003845;28;20051;-71
2023/03/09 06:37:49;;;;;;;12.80;6.13;;;;;;;10.45;95.73;99584.66;5002972;28;20045;-70
2023/03/09 06:40:15;;;;;;;12.38;6.90;;;;;;;11.06;95.37;99678.31;5001910;28;20415;-73
2023/03/09 06:42:41;;;;;;;11.73;6.82;;;;;;;11.13;94.05;99668.59;5011465;28;20156;-70
2023/03/09 06:45:08;;;;;;;10.98;7.70;;;;;;;11.34;92.21;99673.53;5006260;28;20050;-70
2023/03/09 06:47:33;;;;;;;13.32;6.65;;;;;;;11.29;92.38;99664.84;5010101;28;20046;-68
2023/03/09 06:49:59;;;;;;;13.13;6.82;;;;;;;11.24;91.85;99665.78;5009094;28;20495;-70
2023/03/09 06:52:25;;;;;;;13.25;7.57;;;;;;;11.35;91.85;99666.50;5002283;28;20668;-68
2023/03/09 06:54:52;;;;;;;12.77;7.38;;;;;;;11.24;93.48;99634.28;4998405;28;20065;-68
2023/03/09 06:57:18;;;;;;;17.15;8.65;;;;;;;11.01;92.79;99569.03;5006788;28;20153;-69
2023/03/09 06:59:43;;;;;;;11.50;6.93;;;;;;;11.68;91.51;99665.09;4998745;28;20129;-67
2023/03/09 07:02:12;;;;;;;19.40;7.13;;;;;;;11.67;89.60;99654.63;5005858;28;20504;-70
2023/03/09 07:04:37;;;;;;;18.58;8.07;;;;;;;10.98;91.04;99554.19;5003087;28;20773;-69
2023/03/09 07:07:03;;;;;;;12.18;6.53;;;;;;;11.57;89.87;99635.53;5004357;28;20018;-69
2023/03/09 07:09:30;;;;;;;15.85;5.88;;;;;;;11.78;90.24;99645.66;5006460;28;20034;-68
2023/03/09 07:11:56;;;;;;;8.27;5.80;;;;;;;11.43;88.42;99553.47;5003383;28;20132;-67
2023/03/09 07:14:21;;;;;;;23.63;7.72;;;;;;;12.18;86.14;99646.75;4995273;28;20050;-69
2023/03/09 07:16:55;;;;;;;10.10;7.22;;;;;;;12.30;83.96;99637.75;4996827;28;20046;-68
2023/03/09 07:19:21;;;;;;;12.18;9.05;;;;;;;12.72;84.40;99641.25;4980820;28;20045;-67
2023/03/09 07:21:47;;;;;;;14.15;7.28;;;;;;;12.77;80.83;99628.00;4983054;28;20185;-69
2023/03/09 07:24:13;;;;;;;11.63;7.35;;;;;;;12.40;79.36;99545.44;5006630;28;21593;-68
2023/03/09 07:26:39;;;;;;;12.95;7.32;;;;;;;12.34;78.89;99550.84;5000195;28;20058;-67
2023/03/09 07:29:04;;;;;;;9.25;5.70;;;;;;;12.95;79.79;99660.97;5003376;28;20045;-67
2023/03/09 07:31:30;;;;;;;10.52;6.47;;;;;;;12.39;77.41;99540.22;4996139;28;20050;-69
2023/03/09 07:33:56;;;;;;;13.55;6.55;;;;;;;12.50;76.81;99550.50;5005094;28;20550;-68
2023/03/09 07:36:22;;;;;;;16.55;6.35;;;;;;;12.80;79.41;99580.53;5000153;28;20035;-67
2023/03/09 07:38:47;;;;;;;24.88;8.75;;;;;;;13.45;76.84;99667.75;4998157;28;20046;-69
2023/03/09 07:41:14;;;;;;;11.95;7.85;;;;;;;13.36;75.51;99665.31;5001558;28;20049;-68
2023/03/09 07:43:43;;;;;;;14.60;6.53;;;;;;;12.82;74.79;99541.88;4999600;28;20405;-68
2023/03/09 07:46:11;;;;;;;12.57;6.93;;;;;;;13.52;75.40;99653.50;5005774;28;20050;-68
2023/03/09 07:48:39;;;;;;;10.07;6.80;;;;;;;13.23;73.64;99590.09;5006466;28;20034;-69
2023/03/09 07:51:06;;;;;;;11.10;6.90;;;;;;;13.30;72.74;99615.44;5006216;28;20541;-67
2023/03/09 07:53:37;;;;;;;10.05;6.28;;;;;;;13.09;72.12;99585.16;5005908;28;20076;-67
2023/03/09 07:56:04;;;;;;;11.65;7.20;;;;;;;13.62;71.22;99640.09;5003628;28;20149;-68
2023/03/09 07:58:34;;;;;;;12.85;6.10;;;;;;;13.13;71.56;99541.16;5005533;28;20049;-68
2023/03/09 08:01:00;;;;;;;8.80;6.13;;;;;;;13.27;71.33;99583.81;5006048;28;20040;-68
2023/03/09 08:03:27;;;;;;;13.07;7.43;;;;;;;13.57;70.66;99607.72;5006252;28;20108;-67
2023/03/09 08:05:55;;;;;;;15.35;8.13;;;;;;;13.80;70.34;99655.47;5005992;28;20057;-68
2023/03/09 08:08:26;;;;;;;11.95;7.53;;;;;;;13.71;70.15;99634.59;5005535;28;20042;-68
2023/03/09 08:10:52;;;;;;;18.10;7.45;;;;;;;13.77;70.29;99630.97;5001716;28;20045;-68
2023/03/09 08:13:19;;;;;;;11.73;7.30;;;;;;;13.08;70.64;99543.91;5006908;28;20061;-68
2023/03/09 08:15:45;;;;;;;19.80;9.25;;;;;;;13.08;71.10;99544.75;5005823;28;20033;-68
2023/03/09 08:18:12;;;;;;;19.67;9.63;;;;;;;13.31;71.96;99574.97;5001695;28;20084;-67
2023/03/09 08:20:38;;;;;;;10.43;7.53;;;;;;;13.79;72.56;99668.69;5005553;28;20179;-68
2023/03/09 08:23:03;;;;;;;13.40;8.40;;;;;;;13.31;73.32;99564.44;5005494;28;20054;-67
2023/03/09 08:25:30;;;;;;;12.23;6.72;;;;;;;13.48;70.53;99571.91;5000451;28;20046;-68
2023/03/09 08:27:56;;;;;;;11.77;7.82;;;;;;;13.52;71.45;99566.53;5005336;28;20038;-70
2023/03/09 08:30:22;;;;;;;11.50;5.97;;;;;;;13.94;70.79;99655.97;4989397;28;20495;-67
2023/03/09 08:32:51;;;;;;;13.38;6.75;;;;;;;14.30;70.92;99644.47;4997539;28;20053;-69
2023/03/09 08:35:19;;;;;;;20.73;9.70;;;;;;;14.09;69.87;99550.94;4999914;28;20081;-68
2023/03/09 08:37:45;;;;;;;20.58;6.68;;;;;;;14.66;67.07;99666.38;4995303;28;20050;-67
2023/03/09 08:40:12;;;;;;;10.43;7.05;;;;;;;14.21;67.46;99541.81;4997536;28;20058;-67
2023/03/09 08:42:38;;;;;;;13.70;7.18;;;;;;;15.03;65.66;99651.19;4997234;28;20029;-68
2023/03/09 08:45:05;;;;;;;12.23;7.60;;;;;;;14.45;64.36;99556.09;4999741;28;20046;-67
2023/03/09 08:47:31;;;;;;;15.55;7.80;;;;;;;14.78;64.29;99646.66;4998434;28;20070;-67
2023/03/09 08:49:58;;;;;;;10.65;6.18;;;;;;;14.82;64.81;99658.00;5004246;28;20255;-68
2023/03/09 08:52:23;;;;;;;15.93;6.50;;;;;;;14.91;64.54;99655.97;4996428;28;20038;-68
2023/03/09 08:54:49;;;;;;;17.08;6.72;;;;;;;14.17;63.69;99519.94;5002001;28;20041;-68
2023/03/09 08:57:16;;;;;;;21.23;6.55;;;;;;;14.44;64.05;99539.38;5002900;28;21117;-69
2023/03/09 08:59:41;;;;;;;14.55;6.65;;;;;;;14.72;63.89;99613.38;5002724;28;20123;-68
2023/03/09 09:02:14;;;;;;;13.20;5.93;;;;;;;14.97;64.13;99631.97;4994827;28;20086;-69
2023/03/09 09:04:43;;;;;;;8.93;5.15;;;;;;;15.24;62.98;99634.69;4999972;28;20041;-69
2023/03/09 09:07:09;;;;;;;15.40;4.72;;;;;;;15.17;61.24;99641.06;4999864;28;20049;-68
2023/03/09 09:09:35;;;;;;;11.38;5.25;;;;;;;15.03;58.76;99619.50;5001413;28;20119;-70
2023/03/09 09:12:00;;;;;;;12.23;4.38;;;;;;;15.23;58.73;99647.94;4994390;28;20054;-69
2023/03/09 09:14:26;;;;;;;10.23;4.57;;;;;;;14.92;58.43;99548.53;4996875;28;20442;-67
2023/03/09 09:16:51;;;;;;;8.05;4.18;;;;;;;14.88;57.83;99536.31;4999446;28;20046;-68
2023/03/09 09:19:18;;;;;;;11.93;3.45;;;;;;;15.01;57.47;99594.88;4999499;28;20411;-68
2023/03/09 09:21:43;;;;;;;10.32;4.20;;;;;;;14.51;58.46;99517.16;4991729;28;20097;-68
2023/03/09 09:24:09;;;;;;;7.47;3.55;;;;;;;15.14;58.07;99628.81;4994774;28;20184;-69
2023/03/09 09:26:34;;;;;;;10.10;4.57;;;;;;;14.59;59.08;99529.31;5002829;28;20072;-68
2023/03/09 09:29:01;;;;;;;9.75;4.65;;;;;;;15.39;58.97;99623.63;5005992;28;20042;-67
2023/03/09 09:31:27;;;;;;;8.80;3.35;;;;;;;15.16;58.91;99546.84;4990041;28;20052;-69
2023/03/09 09:33:54;;;;;;;10.45;4.05;;;;;;;15.07;58.56;99523.38;4997796;28;20133;-68
2023/03/09 09:36:19;;;;;;;8.10;3.72;;;;;;;15.65;58.87;99619.25;4996198;28;20409;-68
2023/03/09 09:38:46;;;;;;;12.13;4.35;;;;;;;15.03;58.78;99514.69;4995544;28;20066;-68
2023/03/09 09:41:11;;;;;;;11.93;3.80;;;;;;;15.78;58.82;99617.97;5001551;28;20049;-67
2023/03/09 09:43:38;;;;;;;8.75;3.42;;;;;;;15.64;58.61;99585.81;4996134;28;20072;-68
2023/03/09 09:46:05;;;;;;;7.30;3.83;;;;;;;15.93;58.92;99582.16;4996097;28;20207;-69
2023/03/09 09:48:32;;;;;;;9.60;2.95;;;;;;;16.03;57.67;99604.72;4996165;28;20054;-69
2023/03/09 09:51:06;;;;;;;12.90;3.67;;;;;;;16.24;57.84;99596.94;4994360;28;20038;-69
2023/03/09 09:53:35;;;;;;;13.63;4.82;;;;;;;16.23;57.77;99588.13;5002848;28;20451;-68
2023/03/09 09:56:01;;;;;;;13.57;3.40;;;;;;;16.35;56.91;99581.53;5000418;28;20112;-68
2023/03/09 09:58:42;;;;;;;8.55;3.10;;;;;;;16.11;56.36;99554.19;4998542;28;20050;-68
2023/03/09 10:01:23;;;;;;;8.90;3.47;;;;;;;15.73;56.64;99465.59;5000299;28;20038;-70
2023/03/09 10:03:53;;;;;;;5.57;3.60;;;;;;;16.39;56.54;99575.19;4994105;28;20048;-68
2023/03/09 10:06:21;;;;;;;7.82;3.30;;;;;;;15.72;56.52;99463.91;5002880;28;20152;-68
2023/03/09 10:08:55;;;;;;;8.52;3.35;;;;;;;15.90;56.91;99496.75;4997124;28;20038;-68
2023/03/09 10:11:28;;;;;;;10.02;3.30;;;;;;;15.81;56.94;99497.94;4991152;28;20136;-68
2023/03/09 10:14:16;;;;;;;11.68;2.78;;;;;;;16.07;57.28;99563.16;5001177;28;20157;-69
2023/03/09 10:16:52;;;;;;;18.80;3.92;;;;;;;15.93;58.17;99560.13;4990590;28;20046;-69
2023/03/09 10:19:24;;;;;;;13.52;4.47;;;;;;;15.89;58.91;99551.44;5001379;28;20489;-68
2023/03/09 10:21:57;;;;;;;10.05;5.18;;;;;;;15.72;58.83;99472.69;5000509;28;20038;-69
2023/03/09 10:24:31;;;;;;;8.55;3.70;;;;;;;15.77;58.81;99481.31;4999837;28;20034;-68
2023/03/09 10:27:01;;;;;;;8.95;4.00;;;;;;;16.19;58.99;99554.75;5002034;28;20042;-70
2023/03/09 10:29:37;;;;;;;11.73;3.40;;;;;;;16.49;57.28;99546.59;4997150;28;20046;-71
2023/03/09 10:32:11;;;;;;;6.95;3.55;;;;;;;16.21;57.83;99443.53;5013680;28;20076;-69
2023/03/09 10:34:59;;;;;;;8.02;3.85;;;;;;;16.14;56.54;99437.59;4998136;28;20056;-69
2023/03/09 10:37:32;;;;;;;10.13;3.28;;;;;;;16.88;56.42;99546.00;5002833;28;20571;-72
2023/03/09 10:40:03;;;;;;;7.38;3.92;;;;;;;17.01;56.74;99515.41;4998390;28;20036;-72
2023/03/09 10:42:35;;;;;;;6.53;3.10;;;;;;;17.04;56.28;99503.81;5007024;28;20037;-72
2023/03/09 10:45:27;;;;;;;5.93;3.20;;;;;;;16.87;54.81;99441.75;4997455;28;20042;-71
2023/03/09 10:47:57;;;;;;;7.60;2.08;;;;;;;17.20;54.43;99496.09;5001295;28;20041;-71
2023/03/09 10:50:26;;;;;;;7.32;2.75;;;;;;;16.70;53.98;99403.63;5000414;28;20038;-74
2023/03/09 10:52:54;;;;;;;6.15;2.53;;;;;;;17.39;54.18;99482.91;5001946;28;20054;-74
2023/03/09 10:55:25;;;;;;;16.15;2.58;;;;;;;17.62;53.56;99497.84;4999559;28;20112;-70
2023/03/09 10:57:59;;;;;;;5.88;2.38;;;;;;;17.19;53.45;99412.19;5002980;28;20026;-72
2023/03/09 11:00:25;;;;;;;5.57;2.60;;;;;;;17.47;53.02;99417.16;5000395;28;20052;-75
2023/03/09 11:03:00;;;;;;;11.27;2.85;;;;;;;17.61;53.68;99458.97;5001018;28;20054;-72
2023/03/09 11:05:29;;;;;;;6.15;2.97;;;;;;;17.24;53.06;99381.03;5003693;28;20487;-72
2023/03/09 11:08:02;;;;;;;7.65;3.13;;;;;;;17.87;52.80;99468.47;5002851;28;20421;-74
2023/03/09 11:10:32;;;;;;;;;;;;;;;17.12;53.60;99480.50;5002218;28;20503;-72
2023/03/09 11:12:58;;;;;;;5.78;2.53;;;;;;;16.31;53.60;99357.53;5001769;28;20015;-72
2023/03/09 11:15:29;;;;;;;12.32;3.42;;;;;;;17.06;54.12;99473.66;5003642;28;20053;-71
2023/03/09 11:17:57;;;;;;;18.45;3.75;;;;;;;17.33;53.94;99438.13;5000950;28;20056;-72
2023/03/09 11:20:35;;;;;;;7.40;3.30;;;;;;;17.40;54.37;99459.00;5001109;28;20054;-71
2023/03/09 11:23:29;;;;;;;4.97;2.63;;;;;;;17.54;53.70;99449.56;5001821;28;20050;-72
2023/03/09 11:26:19;;;;;;;10.98;4.43;;;;;;;17.06;55.26;99449.81;5002028;28;20153;-72
2023/03/09 11:28:59;;;;;;;7.25;2.95;;;;;;;16.62;55.09;99365.09;4999208;28;20454;-73
2023/03/09 11:31:33;;;;;;;11.73;3.72;;;;;;;16.84;55.38;99350.97;4998683;28;20045;-74